Search METAR Data

METAR Data for ENDU:

ENDU 301250Z 20007KT 150V250 9999 FEW045TCU BKN090 27/06 Q1009 NOSIG RMK WIND 1100FT 16009KT WIND 2200FT 21017KT